Pea Ridge, Missouri
Current Conditions -  °F | °C
As of 11:55 PM on Thursday 30 Oct 2014 (Local Time) from KFYG Reporting Station
Overcast Overcast  
Wind Chill:   Ceiling: 11000
Heat Index:   Visibility: 10mi
Dew Point:   Wind: 0mph
Humidity: 100%   Direction: NA
Pressure: 30.05"   Gusts: NA
Location:  38.2643°N, 91.1348°W
Report Text: KFYG 310455Z AUTO 00000KT 10SM OVC110 05/05 A3005 RMK AO2 LTG DSNT NE
Loading
Personal Weather Stations






























Interactive Weather Map
Tropical Storm Tracking
New forecast layout! Learn more

10-Day Weather Forecast

Advertisements
Track Severe Weather on mobile